createdAt,value
2023-03-03T00:00:03.303Z,9.711708
2023-03-03T00:01:03.251Z,9.711526
2023-03-03T00:02:03.277Z,9.711203
2023-03-03T00:03:03.274Z,9.711209
2023-03-03T00:04:03.214Z,9.711302
2023-03-03T00:05:03.221Z,9.711607
2023-03-03T00:06:03.208Z,9.711566
2023-03-03T00:07:03.199Z,9.711405
2023-03-03T00:08:03.196Z,9.711278
2023-03-03T00:09:03.183Z,9.711310
2023-03-03T00:10:03.176Z,9.711340
2023-03-03T00:11:03.178Z,9.711741
2023-03-03T00:12:03.164Z,9.711320
2023-03-03T00:13:03.152Z,9.711731
2023-03-03T00:14:03.158Z,9.711605
2023-03-03T00:15:03.145Z,9.711735
2023-03-03T00:16:03.172Z,9.711740
2023-03-03T00:17:03.118Z,9.711325
2023-03-03T00:18:03.109Z,9.711370
2023-03-03T00:19:03.116Z,9.711475
2023-03-03T00:20:03.096Z,9.711638
2023-03-03T00:21:03.088Z,9.711875
2023-03-03T00:22:03.071Z,9.711513
2023-03-03T00:27:45.884Z,9.711730
2023-03-03T00:28:45.910Z,9.711620
2023-03-03T00:29:45.882Z,9.711524
2023-03-03T00:30:45.861Z,9.711454
2023-03-03T00:31:45.863Z,9.711561
2023-03-03T00:32:45.843Z,9.711627
2023-03-03T00:33:45.858Z,9.711569
2023-03-03T00:34:45.830Z,9.711480
2023-03-03T00:35:45.909Z,9.711679
2023-03-03T00:36:45.830Z,9.711608
2023-03-03T00:37:45.821Z,9.711599
2023-03-03T00:38:45.806Z,9.711583
2023-03-03T00:39:46.672Z,9.711591
2023-03-03T00:40:45.781Z,9.711608
2023-03-03T00:41:45.774Z,9.711583
2023-03-03T00:42:46.779Z,9.711694
2023-03-03T00:43:46.674Z,9.711712
2023-03-03T00:44:45.750Z,9.711652
2023-03-03T00:45:45.756Z,9.711552
2023-03-03T00:46:45.752Z,9.711677
2023-03-03T00:47:45.724Z,9.711671
2023-03-03T00:48:45.719Z,9.711580
2023-03-03T00:49:45.730Z,9.711486
2023-03-03T00:50:45.713Z,9.711557
2023-03-03T00:51:45.693Z,9.711568
2023-03-03T00:52:45.701Z,9.711731
2023-03-03T00:53:45.670Z,9.711569
2023-03-03T00:54:45.673Z,9.711508
2023-03-03T00:55:45.664Z,9.711698
2023-03-03T00:56:45.670Z,9.711486
2023-03-03T00:57:45.650Z,9.711557
2023-03-03T00:58:45.641Z,9.711548
2023-03-03T00:59:45.680Z,9.711576
2023-03-03T01:00:45.622Z,9.711521
2023-03-03T01:01:45.659Z,9.711600
2023-03-03T01:02:45.656Z,9.711649
2023-03-03T01:03:45.604Z,9.711707
2023-03-03T01:04:45.607Z,9.711607
2023-03-03T01:05:45.604Z,9.711486
2023-03-03T01:06:45.621Z,9.711549
2023-03-03T01:07:45.573Z,9.711409
2023-03-03T01:08:45.561Z,9.711646
2023-03-03T01:09:45.557Z,9.711643
2023-03-03T01:10:45.545Z,9.711730
2023-03-03T01:11:45.538Z,9.711565
2023-03-03T01:12:45.525Z,9.711613
2023-03-03T01:13:47.244Z,9.711725
2023-03-03T01:14:45.509Z,9.711884
2023-03-03T01:15:45.543Z,9.711616
2023-03-03T01:16:45.498Z,9.711691
2023-03-03T01:17:45.481Z,9.711684
2023-03-03T01:18:45.483Z,9.711745
2023-03-03T01:19:45.470Z,9.711682
2023-03-03T01:20:45.484Z,9.711637
2023-03-03T01:21:45.467Z,9.711671
2023-03-03T01:22:45.444Z,9.711695
2023-03-03T01:23:45.437Z,9.711761
2023-03-03T01:24:45.436Z,9.711756
2023-03-03T01:25:45.433Z,9.711773
2023-03-03T01:26:45.417Z,9.711841
2023-03-03T01:27:45.423Z,9.712049
2023-03-03T01:28:47.171Z,9.711865
2023-03-03T01:29:45.427Z,9.711884
2023-03-03T01:30:45.391Z,9.711996
2023-03-03T01:31:45.375Z,9.711838
2023-03-03T01:32:45.370Z,9.711821
2023-03-03T01:33:45.368Z,9.711874
2023-03-03T01:34:45.374Z,9.711788
2023-03-03T01:35:45.445Z,9.711652
2023-03-03T01:36:45.357Z,9.711705
2023-03-03T01:37:45.333Z,9.711823
2023-03-03T01:38:45.329Z,9.711729
2023-03-03T01:39:45.314Z,9.711385
2023-03-03T01:40:45.312Z,9.711998
2023-03-03T01:41:45.298Z,9.712126
2023-03-03T01:42:45.306Z,9.711910
2023-03-03T01:43:45.280Z,9.711958
2023-03-03T01:44:45.274Z,9.712052
2023-03-03T01:45:45.279Z,9.712018
2023-03-03T01:46:45.296Z,9.712119
2023-03-03T01:47:45.249Z,9.712009
2023-03-03T01:48:45.263Z,9.712211
2023-03-03T01:49:46.235Z,9.712155
2023-03-03T01:50:45.238Z,9.712100
2023-03-03T01:51:45.226Z,9.712004
2023-03-03T01:52:45.222Z,9.711898
2023-03-03T01:53:45.202Z,9.711824
2023-03-03T01:54:45.209Z,9.711884
2023-03-03T01:55:45.199Z,9.711855
2023-03-03T01:56:45.194Z,9.711724
2023-03-03T01:57:45.168Z,9.711790
2023-03-03T01:58:45.185Z,9.711855
2023-03-03T01:59:45.169Z,9.711918
2023-03-03T02:00:45.149Z,9.711852
2023-03-03T02:01:45.184Z,9.711979
2023-03-03T02:02:45.183Z,9.711852
2023-03-03T02:03:46.128Z,9.711759
2023-03-03T02:04:45.113Z,9.711829
2023-03-03T02:05:45.114Z,9.711766
2023-03-03T02:06:45.096Z,9.711856
2023-03-03T02:07:45.125Z,9.711847
2023-03-03T02:08:45.097Z,9.711834
2023-03-03T02:09:45.134Z,9.711827
2023-03-03T02:10:45.084Z,9.711781
2023-03-03T02:11:45.080Z,9.711761
2023-03-03T02:12:45.088Z,9.711768
2023-03-03T02:13:45.045Z,9.711774
2023-03-03T02:14:45.045Z,9.711789
2023-03-03T02:15:45.040Z,9.711750
2023-03-03T02:16:45.045Z,9.711738
2023-03-03T02:17:45.023Z,9.711735
2023-03-03T02:18:45.016Z,9.711767
2023-03-03T02:19:45.005Z,9.711761
2023-03-03T02:20:45.000Z,9.711796
2023-03-03T02:21:44.986Z,9.711806
2023-03-03T02:22:44.985Z,9.711785
2023-03-03T02:23:44.997Z,9.711702
2023-03-03T02:24:44.988Z,9.711764
2023-03-03T02:25:44.960Z,9.711769
2023-03-03T02:26:44.955Z,9.711775
2023-03-03T02:27:44.950Z,9.711717
2023-03-03T02:28:44.952Z,9.711673
2023-03-03T02:29:44.938Z,9.711661
2023-03-03T02:30:44.914Z,9.711666
2023-03-03T02:31:45.957Z,9.711658
2023-03-03T02:32:44.921Z,9.711771
2023-03-03T02:33:44.921Z,9.711690
2023-03-03T02:34:44.891Z,9.711795
2023-03-03T02:35:44.932Z,9.711661
2023-03-03T02:36:44.883Z,9.711709
2023-03-03T02:37:44.868Z,9.711760
2023-03-03T02:38:44.865Z,9.711761
2023-03-03T02:39:44.849Z,9.711928
2023-03-03T02:40:44.845Z,9.711999
2023-03-03T02:41:46.778Z,9.711915
2023-03-03T02:42:44.847Z,9.711800
2023-03-03T02:43:44.838Z,9.711801
2023-03-03T02:44:44.809Z,9.711832
2023-03-03T02:45:44.852Z,9.711826
2023-03-03T02:46:44.818Z,9.712008
2023-03-03T02:47:44.778Z,9.712870
2023-03-03T02:48:44.782Z,9.712670
2023-03-03T02:49:44.770Z,9.712390
2023-03-03T02:50:44.760Z,9.712238
2023-03-03T02:51:44.759Z,9.712164
2023-03-03T02:52:44.762Z,9.712004
2023-03-03T02:53:45.261Z,9.711815
2023-03-03T02:54:44.729Z,9.711626
2023-03-03T02:55:44.763Z,9.711623
2023-03-03T02:56:44.725Z,9.711642
2023-03-03T02:57:44.728Z,9.711673
2023-03-03T02:58:44.706Z,9.711584
2023-03-03T02:59:44.715Z,9.711599
2023-03-03T03:00:44.699Z,9.711613
2023-03-03T03:01:44.698Z,9.711593
2023-03-03T03:02:45.263Z,9.711792
2023-03-03T03:03:44.688Z,9.711740
2023-03-03T03:04:44.659Z,9.711656
2023-03-03T03:05:45.266Z,9.711615
2023-03-03T03:06:44.657Z,9.711662
2023-03-03T03:07:44.630Z,9.711640
2023-03-03T03:08:44.616Z,9.711686
2023-03-03T03:09:44.627Z,9.711617
2023-03-03T03:10:44.610Z,9.711598
2023-03-03T03:11:44.597Z,9.711659
2023-03-03T03:12:45.191Z,9.711656
2023-03-03T03:13:44.597Z,9.711694
2023-03-03T03:14:44.571Z,9.711649
2023-03-03T03:15:44.557Z,9.711651
2023-03-03T03:16:45.277Z,9.711670
2023-03-03T03:17:44.579Z,9.711670
2023-03-03T03:18:44.543Z,9.711670
2023-03-03T03:19:44.542Z,9.711687
2023-03-03T03:20:44.536Z,9.711692
2023-03-03T03:21:45.264Z,9.711709
2023-03-03T03:22:44.541Z,9.711705
2023-03-03T03:23:44.548Z,9.711658
2023-03-03T03:24:44.528Z,9.711619
2023-03-03T03:25:45.192Z,9.711614
2023-03-03T03:26:46.289Z,9.711610
2023-03-03T03:27:44.475Z,9.711647
2023-03-03T03:28:44.477Z,9.711675
2023-03-03T03:29:44.459Z,9.711651
2023-03-03T03:30:44.464Z,9.711641
2023-03-03T03:31:44.454Z,9.711675
2023-03-03T03:32:44.444Z,9.711737
2023-03-03T03:33:44.443Z,9.711700
2023-03-03T03:34:44.417Z,9.711658
2023-03-03T03:35:45.337Z,9.711663
2023-03-03T03:36:44.404Z,9.711681
2023-03-03T03:37:45.262Z,9.711701
2023-03-03T03:38:45.408Z,9.711669
2023-03-03T03:39:44.372Z,9.711689
2023-03-03T03:40:44.365Z,9.711656
2023-03-03T03:41:45.367Z,9.711676
2023-03-03T03:42:44.353Z,9.711643
2023-03-03T03:43:44.367Z,9.711689
2023-03-03T03:44:45.274Z,9.711712
2023-03-03T03:45:44.357Z,9.711702
2023-03-03T03:46:44.354Z,9.711648
2023-03-03T03:47:44.323Z,9.711660
2023-03-03T03:48:45.287Z,9.711738
2023-03-03T03:49:44.338Z,9.711739
2023-03-03T03:50:44.307Z,9.711686
2023-03-03T03:51:44.292Z,9.711683
2023-03-03T03:52:44.278Z,9.711725
2023-03-03T03:53:44.268Z,9.711733
2023-03-03T03:54:44.280Z,9.711690
2023-03-03T03:55:44.255Z,9.711713
2023-03-03T03:56:44.255Z,9.711693
2023-03-03T03:57:44.238Z,9.711731
2023-03-03T03:58:44.781Z,9.711719
2023-03-03T03:59:44.233Z,9.711697
2023-03-03T04:00:44.222Z,9.711708
2023-03-03T04:01:44.218Z,9.711709
2023-03-03T04:02:44.305Z,9.711750
2023-03-03T04:03:44.211Z,9.711754
2023-03-03T04:04:44.188Z,9.711719
2023-03-03T04:05:44.197Z,9.711761
2023-03-03T04:06:44.179Z,9.711737
2023-03-03T04:07:44.164Z,9.711747
2023-03-03T04:08:44.184Z,9.711666
2023-03-03T04:09:44.146Z,9.711713
2023-03-03T04:10:44.787Z,9.711747
2023-03-03T04:11:44.136Z,9.711815
2023-03-03T04:12:44.139Z,9.711877
2023-03-03T04:13:44.174Z,9.711802
2023-03-03T04:14:44.110Z,9.711789
2023-03-03T04:15:44.181Z,9.711678
2023-03-03T04:16:44.097Z,9.711713
2023-03-03T04:17:44.794Z,9.711796
2023-03-03T04:18:46.500Z,9.711807
2023-03-03T04:19:45.076Z,9.711872
2023-03-03T04:20:44.073Z,9.711853
2023-03-03T04:21:44.708Z,9.711855
2023-03-03T04:22:44.041Z,9.711824
2023-03-03T04:23:44.045Z,9.712078
2023-03-03T04:24:44.305Z,9.711837
2023-03-03T04:25:44.033Z,9.711786
2023-03-03T04:26:44.024Z,9.711865
2023-03-03T04:27:44.022Z,9.711854
2023-03-03T04:28:44.005Z,9.711851
2023-03-03T04:29:44.023Z,9.711905
2023-03-03T04:30:44.029Z,9.711863
2023-03-03T04:31:43.985Z,9.711986
2023-03-03T04:32:43.968Z,9.711820
2023-03-03T04:33:43.965Z,9.711781
2023-03-03T04:34:43.960Z,9.711816
2023-03-03T04:35:43.982Z,9.711743
2023-03-03T04:36:43.963Z,9.711865
2023-03-03T04:37:43.935Z,9.711810
2023-03-03T04:38:43.922Z,9.711761
2023-03-03T04:39:43.914Z,9.711918
2023-03-03T04:40:43.904Z,9.711783
2023-03-03T04:41:43.904Z,9.711840
2023-03-03T04:42:43.891Z,9.711896
2023-03-03T04:43:45.730Z,9.711757
2023-03-03T04:44:43.989Z,9.711840
2023-03-03T04:45:43.886Z,9.711877
2023-03-03T04:46:44.707Z,9.712008
2023-03-03T04:47:43.856Z,9.711930
2023-03-03T04:48:43.836Z,9.712017
2023-03-03T04:49:43.927Z,9.711960
2023-03-03T04:50:43.835Z,9.711970
2023-03-03T04:51:43.818Z,9.711893
2023-03-03T04:52:43.809Z,9.711962
2023-03-03T04:53:43.801Z,9.712016
2023-03-03T04:54:43.789Z,9.711544
2023-03-03T04:55:44.729Z,9.711845
2023-03-03T04:56:43.773Z,9.712144
2023-03-03T04:57:44.310Z,9.711694
2023-03-03T04:58:43.758Z,9.711637
2023-03-03T04:59:43.771Z,9.711664
2023-03-03T05:00:43.763Z,9.711674
2023-03-03T05:01:43.786Z,9.711630
2023-03-03T05:02:43.736Z,9.711649
2023-03-03T05:03:43.738Z,9.711630
2023-03-03T05:04:43.803Z,9.711644
2023-03-03T05:05:43.713Z,9.711653
2023-03-03T05:06:43.690Z,9.711635
2023-03-03T05:07:43.691Z,9.711651
2023-03-03T05:08:43.694Z,9.711649
2023-03-03T05:09:43.684Z,9.711654
2023-03-03T05:10:43.703Z,9.711701
2023-03-03T05:11:43.656Z,9.711655
2023-03-03T05:12:43.658Z,9.711645
2023-03-03T05:13:43.648Z,9.711659
2023-03-03T05:14:43.626Z,9.711654
2023-03-03T05:15:43.646Z,9.711668
2023-03-03T05:16:43.618Z,9.711716
2023-03-03T05:17:43.597Z,9.711669
2023-03-03T05:18:43.592Z,9.711709
2023-03-03T05:19:43.577Z,9.711667
2023-03-03T05:20:43.574Z,9.711677
2023-03-03T05:21:43.615Z,9.711671
2023-03-03T05:22:43.577Z,9.711781
2023-03-03T05:23:43.552Z,9.711816
2023-03-03T05:24:45.217Z,9.711779
2023-03-03T05:25:46.280Z,9.711749
2023-03-03T05:26:43.535Z,9.711695
2023-03-03T05:27:43.531Z,9.711759
2023-03-03T05:28:43.545Z,9.711758
2023-03-03T05:29:43.512Z,9.711725
2023-03-03T05:30:43.525Z,9.711850
2023-03-03T05:31:45.566Z,9.711785
2023-03-03T05:32:44.547Z,9.712084
2023-03-03T05:33:43.478Z,9.711907
2023-03-03T05:34:43.473Z,9.711778
2023-03-03T05:35:43.536Z,9.711763
2023-03-03T05:36:43.451Z,9.711672
2023-03-03T05:37:43.465Z,9.711732
2023-03-03T05:38:43.439Z,9.711670
2023-03-03T05:39:47.204Z,9.711666
2023-03-03T05:40:43.440Z,9.711681
2023-03-03T05:41:43.421Z,9.711740
2023-03-03T05:42:43.455Z,9.711676
2023-03-03T05:43:43.419Z,9.711683
2023-03-03T05:44:45.278Z,9.711815
2023-03-03T05:45:43.388Z,9.711633
2023-03-03T05:46:44.327Z,9.711739
2023-03-03T05:47:43.384Z,9.711780
2023-03-03T05:48:43.804Z,9.711846
2023-03-03T05:49:43.350Z,9.711831
2023-03-03T05:50:43.366Z,9.711755
2023-03-03T05:51:43.361Z,9.711754
2023-03-03T05:52:44.286Z,9.711708
2023-03-03T05:53:44.344Z,9.711793
2023-03-03T05:54:43.320Z,9.711794
2023-03-03T05:55:43.314Z,9.711725
2023-03-03T05:56:43.301Z,9.711781
2023-03-03T05:57:43.314Z,9.711643
2023-03-03T05:58:43.298Z,9.711540
2023-03-03T05:59:43.279Z,9.711534
2023-03-03T06:00:43.269Z,9.711594
2023-03-03T06:01:43.303Z,9.711577
2023-03-03T06:02:44.258Z,9.711597
2023-03-03T06:03:43.248Z,9.711590
2023-03-03T06:04:43.315Z,9.711561
2023-03-03T06:05:43.239Z,9.711537
2023-03-03T06:06:44.213Z,9.711604
2023-03-03T06:07:43.234Z,9.711629
2023-03-03T06:08:43.221Z,9.711597
2023-03-03T06:09:43.257Z,9.711597
2023-03-03T06:10:43.200Z,9.711544
2023-03-03T06:11:43.189Z,9.711551
2023-03-03T06:12:43.220Z,9.711620
2023-03-03T06:13:43.174Z,9.711577
2023-03-03T06:14:43.159Z,9.711594
2023-03-03T06:15:43.193Z,9.711594
2023-03-03T06:16:43.173Z,9.711629
2023-03-03T06:17:43.153Z,9.711642
2023-03-03T06:18:43.141Z,9.711595
2023-03-03T06:19:43.118Z,9.711639
2023-03-03T06:20:43.125Z,9.711653
2023-03-03T06:21:44.106Z,9.711678
2023-03-03T06:22:43.140Z,9.711653
2023-03-03T06:23:44.735Z,9.711674
2023-03-03T06:24:43.112Z,9.711689
2023-03-03T06:25:43.123Z,9.711694
2023-03-03T06:26:43.079Z,9.711711
2023-03-03T06:27:43.069Z,9.711685
2023-03-03T06:28:43.717Z,9.711727
2023-03-03T06:29:43.046Z,9.711687
2023-03-03T06:30:43.035Z,9.711717
2023-03-03T06:31:43.906Z,9.711686
2023-03-03T06:32:43.092Z,9.711727
2023-03-03T06:33:43.014Z,9.711675
2023-03-03T06:34:43.027Z,9.711658
2023-03-03T06:35:43.073Z,9.711732
2023-03-03T06:36:43.015Z,9.711705
2023-03-03T06:37:43.806Z,9.711734
2023-03-03T06:38:43.809Z,9.711811
2023-03-03T06:39:42.982Z,9.711826
2023-03-03T06:40:42.957Z,9.711775
2023-03-03T06:41:42.966Z,9.711740
2023-03-03T06:42:42.961Z,9.711790
2023-03-03T06:43:42.947Z,9.711777
2023-03-03T06:44:42.936Z,9.711761
2023-03-03T06:45:42.961Z,9.711741
2023-03-03T06:46:43.796Z,9.711728
2023-03-03T06:47:42.916Z,9.711802
2023-03-03T06:48:42.929Z,9.711798
2023-03-03T06:49:42.897Z,9.711807
2023-03-03T06:50:42.895Z,9.711843
2023-03-03T06:51:43.824Z,9.711778
2023-03-03T06:52:42.862Z,9.711739
2023-03-03T06:53:44.759Z,9.711861
2023-03-03T06:54:44.796Z,9.711826
2023-03-03T06:55:42.856Z,9.711905
2023-03-03T06:56:42.831Z,9.711809
2023-03-03T06:57:43.796Z,9.711768
2023-03-03T06:58:42.814Z,9.711704
2023-03-03T06:59:42.818Z,9.711834
2023-03-03T07:00:42.823Z,9.711828
2023-03-03T07:01:44.718Z,9.711800
2023-03-03T07:02:42.814Z,9.711772
2023-03-03T07:03:42.781Z,9.711783
2023-03-03T07:04:42.771Z,9.711812
2023-03-03T07:05:42.770Z,9.711684
2023-03-03T07:06:42.803Z,9.711563
2023-03-03T07:07:42.758Z,9.711770
2023-03-03T07:08:42.746Z,9.712005
2023-03-03T07:09:42.732Z,9.711887
2023-03-03T07:10:42.741Z,9.711880
2023-03-03T07:11:44.019Z,9.711995
2023-03-03T07:12:42.735Z,9.712018
2023-03-03T07:13:42.716Z,9.711839
2023-03-03T07:14:42.699Z,9.711939
2023-03-03T07:15:42.696Z,9.711641
2023-03-03T07:16:42.773Z,9.711615
2023-03-03T07:17:42.690Z,9.712026
2023-03-03T07:18:42.672Z,9.712141
2023-03-03T07:19:42.656Z,9.711913
2023-03-03T07:20:42.667Z,9.711892
2023-03-03T07:21:42.688Z,9.711950
2023-03-03T07:22:42.642Z,9.712090
2023-03-03T07:23:42.954Z,9.712001
2023-03-03T07:24:42.624Z,9.711902
2023-03-03T07:25:42.618Z,9.712007
2023-03-03T07:26:42.612Z,9.711925
2023-03-03T07:27:42.609Z,9.711956
2023-03-03T07:28:42.587Z,9.711689
2023-03-03T07:29:42.611Z,9.711748
2023-03-03T07:30:42.647Z,9.711827
2023-03-03T07:31:45.587Z,9.711664
2023-03-03T07:32:43.562Z,9.711773
2023-03-03T07:33:42.597Z,9.711722
2023-03-03T07:34:42.543Z,9.711617
2023-03-03T07:35:42.564Z,9.711671
2023-03-03T07:36:42.544Z,9.711657
2023-03-03T07:37:42.535Z,9.711682
2023-03-03T07:38:43.259Z,9.711658
2023-03-03T07:39:42.513Z,9.711735
2023-03-03T07:40:42.509Z,9.711654
2023-03-03T07:41:42.501Z,9.711659
2023-03-03T07:42:42.489Z,9.711677
2023-03-03T07:43:42.480Z,9.711680
2023-03-03T07:44:42.469Z,9.711618
2023-03-03T07:45:42.588Z,9.711619
2023-03-03T07:46:45.303Z,9.711635
2023-03-03T07:47:42.458Z,9.711648
2023-03-03T07:48:44.236Z,9.711743
2023-03-03T07:49:42.432Z,9.711736
2023-03-03T07:50:42.451Z,9.711715
2023-03-03T07:51:42.415Z,9.711691
2023-03-03T07:52:42.441Z,9.711663
2023-03-03T07:53:42.398Z,9.711699
2023-03-03T07:54:43.240Z,9.711592
2023-03-03T07:55:42.392Z,9.711628
2023-03-03T07:56:42.368Z,9.711629
2023-03-03T07:57:42.390Z,9.711606
2023-03-03T07:58:42.359Z,9.711672
2023-03-03T07:59:42.345Z,9.711601
2023-03-03T08:00:42.378Z,9.711658
2023-03-03T08:01:42.331Z,9.711610
2023-03-03T08:02:42.330Z,9.711643
2023-03-03T08:03:42.317Z,9.711659
2023-03-03T08:04:42.453Z,9.711686
2023-03-03T08:05:43.326Z,9.711612
2023-03-03T08:06:42.292Z,9.711536
2023-03-03T08:07:42.292Z,9.711703
2023-03-03T08:08:42.271Z,9.711668
2023-03-03T08:09:42.287Z,9.711597
2023-03-03T08:10:43.185Z,9.711492
2023-03-03T08:11:43.820Z,9.711478
2023-03-03T08:12:42.378Z,9.711510
2023-03-03T08:13:42.231Z,9.711503
2023-03-03T08:14:42.255Z,9.711550
2023-03-03T08:15:42.269Z,9.711513
2023-03-03T08:16:42.223Z,9.711558
2023-03-03T08:17:43.108Z,9.711653
2023-03-03T08:18:42.187Z,9.711654
2023-03-03T08:19:43.813Z,9.711693
2023-03-03T08:20:42.355Z,9.711697
2023-03-03T08:21:42.741Z,9.711691
2023-03-03T08:22:42.834Z,9.711656
2023-03-03T08:23:43.168Z,9.711673
2023-03-03T08:24:42.730Z,9.711584
2023-03-03T08:25:42.131Z,9.711660
2023-03-03T08:26:42.130Z,9.711782
2023-03-03T08:27:42.107Z,9.711838
2023-03-03T08:28:42.098Z,9.711827
2023-03-03T08:29:42.089Z,9.711716
2023-03-03T08:30:42.416Z,9.711497
2023-03-03T08:31:42.331Z,9.711386
2023-03-03T08:32:43.267Z,9.711610
2023-03-03T08:33:42.091Z,9.711800
2023-03-03T08:34:42.068Z,9.711795
2023-03-03T08:35:42.193Z,9.711742
2023-03-03T08:36:42.041Z,9.711682
2023-03-03T08:37:42.043Z,9.711780
2023-03-03T08:38:42.042Z,9.711837
2023-03-03T08:39:42.034Z,9.711843
2023-03-03T08:40:42.815Z,9.711820
2023-03-03T08:41:42.022Z,9.711763
2023-03-03T08:42:42.002Z,9.711652
2023-03-03T08:43:42.729Z,9.711708
2023-03-03T08:44:41.994Z,9.711792
2023-03-03T08:45:41.970Z,9.711845
2023-03-03T08:46:41.977Z,9.711785
2023-03-03T08:47:41.966Z,9.711808
2023-03-03T08:48:42.971Z,9.711796
2023-03-03T08:49:41.954Z,9.711736
2023-03-03T08:50:42.809Z,9.711781
2023-03-03T08:51:43.821Z,9.711842
2023-03-03T08:52:41.912Z,9.711905
2023-03-03T08:53:41.910Z,9.711848
2023-03-03T08:54:41.897Z,9.711766
2023-03-03T08:55:42.748Z,9.711715
2023-03-03T08:56:41.877Z,9.711674
2023-03-03T08:57:43.749Z,9.711629
2023-03-03T08:58:49.860Z,9.711666
2023-03-03T08:59:43.877Z,9.711683
2023-03-03T09:00:41.862Z,9.711671
2023-03-03T09:01:41.880Z,9.711665
2023-03-03T09:02:42.745Z,9.711669
2023-03-03T09:03:41.841Z,9.711616
2023-03-03T09:04:41.884Z,9.711642
2023-03-03T09:05:41.814Z,9.711641
2023-03-03T09:06:42.740Z,9.711659
2023-03-03T09:07:41.789Z,9.711625
2023-03-03T09:08:41.798Z,9.711628
2023-03-03T09:09:41.854Z,9.711573
2023-03-03T09:10:41.768Z,9.711593
2023-03-03T09:11:41.760Z,9.711687
2023-03-03T09:12:41.813Z,9.711678
2023-03-03T09:13:41.745Z,9.711657
2023-03-03T09:14:43.320Z,9.711678
2023-03-03T09:15:41.739Z,9.711704
2023-03-03T09:16:41.728Z,9.711656
2023-03-03T09:17:41.712Z,9.711708
2023-03-03T09:18:42.286Z,9.711758
2023-03-03T09:19:41.733Z,9.711704
2023-03-03T09:20:41.720Z,9.711782
2023-03-03T09:21:41.688Z,9.711703
2023-03-03T09:22:41.668Z,9.711596
2023-03-03T09:23:42.315Z,9.711619
2023-03-03T09:24:42.678Z,9.711965
2023-03-03T09:25:42.406Z,9.711698
2023-03-03T09:26:42.643Z,9.711803
2023-03-03T09:27:41.694Z,9.711760
2023-03-03T09:28:41.623Z,9.711927
2023-03-03T09:29:42.236Z,9.711919
2023-03-03T09:30:41.620Z,9.711765
2023-03-03T09:31:41.712Z,9.711711
2023-03-03T09:32:41.683Z,9.711749
2023-03-03T09:33:43.357Z,9.711902
2023-03-03T09:34:42.240Z,9.711845
2023-03-03T09:35:41.613Z,9.711834
2023-03-03T09:36:41.574Z,9.711713
2023-03-03T09:37:41.552Z,9.711726
2023-03-03T09:38:41.570Z,9.711899
2023-03-03T09:39:41.532Z,9.711845
2023-03-03T09:40:41.536Z,9.711717
2023-03-03T09:41:41.523Z,9.711687
2023-03-03T09:42:41.512Z,9.711690
2023-03-03T09:43:41.504Z,9.711709
2023-03-03T09:44:41.579Z,9.711712
2023-03-03T09:45:41.577Z,9.711752
2023-03-03T09:46:41.513Z,9.711864
2023-03-03T09:47:41.474Z,9.711778
2023-03-03T09:48:41.481Z,9.711711
2023-03-03T09:49:41.473Z,9.711895
2023-03-03T09:50:41.447Z,9.711939
2023-03-03T09:51:41.434Z,9.711801
2023-03-03T09:52:41.451Z,9.711914
2023-03-03T09:53:41.431Z,9.711874
2023-03-03T09:54:41.438Z,9.712083
2023-03-03T09:55:42.479Z,9.711926
2023-03-03T09:56:41.421Z,9.711835
2023-03-03T09:57:41.393Z,9.711740
2023-03-03T09:58:41.386Z,9.711735
2023-03-03T09:59:43.246Z,9.711701
2023-03-03T10:00:43.313Z,9.711669
2023-03-03T10:01:41.359Z,9.711715
2023-03-03T10:02:41.380Z,9.711761
2023-03-03T10:03:41.353Z,9.711692
2023-03-03T10:04:41.357Z,9.711636
2023-03-03T10:05:41.332Z,9.711679
2023-03-03T10:06:41.331Z,9.711714
2023-03-03T10:07:41.311Z,9.711704
2023-03-03T10:08:41.306Z,9.711679
2023-03-03T10:09:41.315Z,9.711710
2023-03-03T10:10:41.341Z,9.711685
2023-03-03T10:11:41.276Z,9.711694
2023-03-03T10:12:41.287Z,9.711676
2023-03-03T10:13:41.298Z,9.711676
2023-03-03T10:14:42.758Z,9.711619
2023-03-03T10:15:41.261Z,9.711579
2023-03-03T10:16:41.255Z,9.711581
2023-03-03T10:17:41.228Z,9.711650
2023-03-03T10:18:41.239Z,9.711650
2023-03-03T10:19:41.240Z,9.711626
2023-03-03T10:20:49.708Z,9.711696
2023-03-03T10:21:43.204Z,9.711738
2023-03-03T10:22:41.213Z,9.711716
2023-03-03T10:23:41.179Z,9.711740
2023-03-03T10:24:42.253Z,9.711709
2023-03-03T10:25:41.175Z,9.711727
2023-03-03T10:26:45.242Z,9.711668
2023-03-03T10:27:43.149Z,9.711625
2023-03-03T10:28:41.147Z,9.711840
2023-03-03T10:29:41.144Z,9.711761
2023-03-03T10:30:48.579Z,9.711775
2023-03-03T10:31:43.828Z,9.711728
2023-03-03T10:32:43.013Z,9.711814
2023-03-03T10:33:41.279Z,9.711923
2023-03-03T10:34:41.119Z,9.711864
2023-03-03T10:35:41.262Z,9.711679
2023-03-03T10:36:41.850Z,9.711695
2023-03-03T10:37:41.828Z,9.711919
2023-03-03T10:38:41.065Z,9.711964
2023-03-03T10:39:41.090Z,9.711811
2023-03-03T10:40:41.060Z,9.711720
2023-03-03T10:41:41.096Z,9.711698
2023-03-03T10:42:43.494Z,9.711515
2023-03-03T10:43:41.023Z,9.711704
2023-03-03T10:44:41.838Z,9.711625
2023-03-03T10:45:41.071Z,9.711745
2023-03-03T10:46:41.019Z,9.711964
2023-03-03T10:47:41.001Z,9.711997
2023-03-03T10:48:41.017Z,9.711870
2023-03-03T10:49:43.839Z,9.711925
2023-03-03T10:50:42.275Z,9.711873
2023-03-03T10:51:40.956Z,9.711873
2023-03-03T10:52:40.953Z,9.712073
2023-03-03T10:53:41.831Z,9.711996
2023-03-03T10:54:43.804Z,9.711951
2023-03-03T10:55:40.944Z,9.711890
2023-03-03T10:56:52.514Z,9.712206
2023-03-03T10:57:42.917Z,9.712123
2023-03-03T10:58:40.979Z,9.712000
2023-03-03T10:59:40.912Z,9.712157
2023-03-03T11:00:40.899Z,9.712380
2023-03-03T11:01:42.902Z,9.712387
2023-03-03T11:02:41.866Z,9.712052
2023-03-03T11:03:40.861Z,9.711939
2023-03-03T11:04:41.826Z,9.711771
2023-03-03T11:05:41.842Z,9.711617
2023-03-03T11:06:40.848Z,9.711660
2023-03-03T11:07:40.828Z,9.711691
2023-03-03T11:08:41.768Z,9.711638
2023-03-03T11:09:41.340Z,9.711740
2023-03-03T11:10:40.823Z,9.711888
2023-03-03T11:11:42.785Z,9.711870
2023-03-03T11:27:49.937Z,9.711879
2023-03-03T11:28:48.928Z,9.711869
2023-03-03T11:29:49.609Z,9.711896
2023-03-03T11:30:48.946Z,9.711754
2023-03-03T11:31:48.918Z,9.711646
2023-03-03T11:32:48.883Z,9.711641
2023-03-03T11:33:49.568Z,9.711737
2023-03-03T11:34:48.881Z,9.711739
2023-03-03T11:35:49.686Z,9.711739
2023-03-03T11:36:48.871Z,9.711739
2023-03-03T11:37:48.866Z,9.711739
2023-03-03T11:38:48.874Z,9.711739
2023-03-03T11:40:02.523Z,9.711739
2023-03-03T11:40:48.825Z,9.711739
2023-03-03T11:41:48.827Z,9.711739
2023-03-03T11:42:48.815Z,9.711739
2023-03-03T11:43:48.807Z,9.711739
2023-03-03T11:44:48.800Z,9.711739
2023-03-03T11:45:48.809Z,9.711739
2023-03-03T11:46:48.779Z,9.711739
2023-03-03T11:47:48.806Z,9.711739
2023-03-03T11:48:48.771Z,9.711739
2023-03-03T11:49:48.775Z,9.711520
2023-03-03T11:50:48.749Z,9.711441
2023-03-03T11:51:48.745Z,9.711516
2023-03-03T11:52:51.528Z,9.711566
2023-03-03T11:53:48.730Z,9.711654
2023-03-03T11:54:48.725Z,9.711629
2023-03-03T11:55:48.716Z,9.711522
2023-03-03T11:56:48.703Z,9.711500
2023-03-03T11:57:49.599Z,9.711509
2023-03-03T11:58:48.695Z,9.711467
2023-03-03T11:59:49.539Z,9.711370
2023-03-03T12:00:48.684Z,9.711282
2023-03-03T12:01:48.691Z,9.711528
2023-03-03T12:02:48.752Z,9.711570
2023-03-03T12:03:48.667Z,9.711672